Time;durP1;ratioP1;P1;durP2;ratioP2;P2;SDS_P1;SDS_P2;PMS_P1;PMS_P2;Temp;Humidity;BMP_temperature;BMP_pressure;BME280_temperature;BME280_humidity;BME280_pressure;Samples;Min_cycle;Max_cycle;Signal;HPM_P1;HPM_P2
2022/09/22 00:00:36;;;;;;;3.83;1.85;;;;;;;-140.72;100.00;52762.22;5010379;28;20025;-68
2022/09/22 00:03:02;;;;;;;2.42;1.60;;;;;;;-140.72;100.00;52788.59;4996828;28;20548;-68
2022/09/22 00:05:27;;;;;;;5.22;2.05;;;;;;;-140.72;100.00;52823.09;5001353;28;20064;-68
2022/09/22 00:07:53;;;;;;;3.28;1.52;;;;;;;-140.72;100.00;52819.03;5012270;28;20037;-68
2022/09/22 00:10:20;;;;;;;4.13;1.48;;;;;;;-140.72;100.00;52808.88;5003918;28;20112;-68
2022/09/22 00:12:47;;;;;;;5.50;2.30;;;;;;;-140.72;100.00;52776.41;5013776;28;20030;-68
2022/09/22 00:15:13;;;;;;;3.80;1.80;;;;;;;-140.72;100.00;52812.94;5014849;28;20635;-69
2022/09/22 00:17:38;;;;;;;2.67;1.50;;;;;;;-140.72;100.00;52784.53;5015533;28;20022;-68
2022/09/22 00:20:12;;;;;;;2.83;1.60;;;;;;;-140.72;100.00;52796.72;5006713;28;20086;-68
2022/09/22 00:22:38;;;;;;;4.22;1.45;;;;;;;-140.72;100.00;52812.94;5002797;28;20026;-68
2022/09/22 00:25:04;;;;;;;2.65;1.58;;;;;;;-140.72;100.00;52823.09;5013400;28;20099;-68
2022/09/22 00:27:30;;;;;;;4.18;1.58;;;;;;;-140.72;100.00;52817.00;5001635;28;20039;-68
2022/09/22 00:29:55;;;;;;;2.70;1.50;;;;;;;-140.72;100.00;52806.84;5017297;28;20044;-68
2022/09/22 00:32:21;;;;;;;2.20;1.48;;;;;;;-140.72;100.00;52760.19;5014185;28;20036;-68
2022/09/22 00:34:46;;;;;;;4.97;2.15;;;;;;;-140.72;100.00;52810.91;5015288;28;20061;-68
2022/09/22 00:37:11;;;;;;;3.90;1.63;;;;;;;-140.72;100.00;52821.06;5011407;28;20106;-68
2022/09/22 00:39:37;;;;;;;3.35;1.67;;;;;;;-140.72;100.00;52841.34;5015450;28;20026;-68
2022/09/22 00:42:03;;;;;;;2.97;1.70;;;;;;;-140.72;100.00;52804.81;5017043;28;20089;-68
2022/09/22 00:44:31;;;;;;;2.42;1.38;;;;;;;-140.72;100.00;52796.72;5014502;28;20022;-68
2022/09/22 00:47:01;;;;;;;4.55;2.17;;;;;;;-140.72;100.00;52778.44;5015028;28;20109;-68
2022/09/22 00:49:33;;;;;;;2.42;1.48;;;;;;;-140.72;100.00;52810.91;5020640;28;20025;-68
2022/09/22 00:51:59;;;;;;;2.92;1.88;;;;;;;-140.72;100.00;52802.78;5022669;28;20034;-68
2022/09/22 00:54:25;;;;;;;2.15;1.55;;;;;;;-140.72;100.00;52827.16;5028545;28;20025;-68
2022/09/22 00:57:00;;;;;;;3.95;1.95;;;;;;;-140.72;100.00;52823.09;5013211;28;20122;-68
2022/09/22 00:59:26;;;;;;;2.45;1.95;;;;;;;-140.72;100.00;52784.53;4996710;28;20156;-68
2022/09/22 01:01:51;;;;;;;3.60;1.73;;;;;;;-140.72;100.00;52780.47;5008596;28;20116;-68
2022/09/22 01:04:17;;;;;;;2.50;1.60;;;;;;;-140.72;100.00;52821.06;5003341;28;20032;-68
2022/09/22 01:06:44;;;;;;;4.75;1.30;;;;;;;-140.72;100.00;52812.94;5013649;28;20053;-68
2022/09/22 01:09:10;;;;;;;3.95;1.80;;;;;;;-140.72;100.00;52819.03;5008211;28;20022;-68
2022/09/22 01:11:38;;;;;;;3.42;1.70;;;;;;;-140.72;100.00;52841.34;5011592;28;20056;-68
2022/09/22 01:14:22;;;;;;;3.30;2.13;;;;;;;-140.72;100.00;52776.41;5027540;28;20025;-68
2022/09/22 01:17:05;;;;;;;2.83;1.40;;;;;;;-140.72;100.00;52817.00;5014304;28;20052;-68
2022/09/22 01:19:49;;;;;;;6.45;2.22;;;;;;;-140.72;100.00;52780.47;5015349;28;20085;-68
2022/09/22 01:22:45;;;;;;;2.75;1.52;;;;;;;-140.72;100.00;52782.50;5024144;28;20401;-68
2022/09/22 01:25:38;;;;;;;3.00;1.55;;;;;;;-140.72;100.00;52788.59;5016430;28;20046;-68
2022/09/22 01:28:22;;;;;;;2.05;1.50;;;;;;;-140.72;100.00;52804.81;5028385;28;20029;-68
2022/09/22 01:30:56;;;;;;;1.77;1.35;;;;;;;-140.72;100.00;52829.19;5003456;28;20338;-68
2022/09/22 01:33:48;;;;;;;3.28;2.08;;;;;;;-140.72;100.00;52800.75;5012305;28;20030;-68
2022/09/22 01:36:23;;;;;;;5.88;1.70;;;;;;;-140.72;100.00;52817.00;5006808;28;20454;-68
2022/09/22 01:39:06;;;;;;;4.03;2.08;;;;;;;-140.72;100.00;52812.94;5014451;28;20084;-68
2022/09/22 01:41:34;;;;;;;5.85;1.88;;;;;;;-140.72;100.00;52810.91;5012243;28;20030;-69
2022/09/22 01:44:06;;;;;;;2.42;1.77;;;;;;;-140.72;100.00;52798.72;5003640;28;20538;-68
2022/09/22 01:46:37;;;;;;;3.88;1.90;;;;;;;-140.72;100.00;52835.25;5012744;28;20026;-68
2022/09/22 01:49:08;;;;;;;3.15;1.63;;;;;;;-140.72;100.00;52841.34;5004979;28;20031;-68
2022/09/22 01:51:42;;;;;;;2.00;1.42;;;;;;;-140.72;100.00;52817.00;5008451;28;20101;-68
2022/09/22 01:54:34;;;;;;;2.83;1.77;;;;;;;-140.72;100.00;52877.88;5016123;28;20401;-68
2022/09/22 01:57:10;;;;;;;4.25;2.08;;;;;;;-140.72;100.00;52851.50;5004351;28;20450;-69
2022/09/22 01:59:42;;;;;;;5.70;1.98;;;;;;;-140.72;100.00;52788.59;5000149;28;20050;-68
2022/09/22 02:02:16;;;;;;;3.03;1.73;;;;;;;-140.72;100.00;52806.84;4999584;28;20037;-68
2022/09/22 02:04:46;;;;;;;2.63;1.63;;;;;;;-140.72;100.00;52800.75;5007743;28;20113;-68
2022/09/22 02:07:15;;;;;;;;;;;;;;;-140.72;100.00;52857.59;5006605;28;20112;-68
2022/09/22 02:09:41;;;;;;;2.58;2.05;;;;;;;-140.72;100.00;52796.72;5002359;28;19909;-68
2022/09/22 02:12:06;;;;;;;4.68;2.67;;;;;;;-140.72;100.00;52804.81;5003073;28;20037;-68
2022/09/22 02:14:32;;;;;;;3.15;1.60;;;;;;;-140.72;100.00;52827.16;5012284;28;20084;-68
2022/09/22 02:16:58;;;;;;;2.92;2.05;;;;;;;-140.72;100.00;52825.13;5003563;28;20030;-68
2022/09/22 02:19:36;;;;;;;3.58;1.92;;;;;;;-140.72;100.00;52847.44;4999276;28;20027;-68
2022/09/22 02:22:04;;;;;;;3.30;1.95;;;;;;;-140.72;100.00;52812.94;5002782;28;20014;-68
2022/09/22 02:24:29;;;;;;;3.92;2.05;;;;;;;-140.72;100.00;52798.72;5006850;28;20441;-68
2022/09/22 02:27:01;;;;;;;4.32;2.00;;;;;;;-140.72;100.00;52821.06;4996139;28;20150;-69
2022/09/22 02:29:31;;;;;;;3.58;2.22;;;;;;;-140.72;100.00;52837.28;5016808;28;20030;-68
2022/09/22 02:31:59;;;;;;;3.25;1.92;;;;;;;-140.72;100.00;52800.75;5008890;28;20489;-68
2022/09/22 02:34:24;;;;;;;2.15;1.45;;;;;;;-140.72;100.00;52827.16;5008300;28;20191;-69
2022/09/22 02:37:08;;;;;;;2.60;1.73;;;;;;;-140.72;100.00;52829.19;5006522;28;20092;-68
2022/09/22 02:40:21;;;;;;;3.15;1.70;;;;;;;-140.72;100.00;52837.28;5009066;28;20030;-68
2022/09/22 02:42:51;;;;;;;5.35;2.85;;;;;;;-140.72;100.00;52831.19;5002757;28;20132;-69
2022/09/22 02:45:22;;;;;;;3.17;2.10;;;;;;;-140.72;100.00;52853.53;5013297;28;20055;-68
2022/09/22 02:47:52;;;;;;;4.35;2.08;;;;;;;-140.72;100.00;52812.94;5013335;28;20034;-68
2022/09/22 02:50:21;;;;;;;3.75;1.92;;;;;;;-140.72;100.00;52831.19;5000803;28;20106;-68
2022/09/22 02:52:50;;;;;;;6.20;2.25;;;;;;;-140.72;100.00;52825.13;5013527;28;20045;-68
2022/09/22 02:55:15;;;;;;;5.45;2.03;;;;;;;-140.72;100.00;52849.47;5007767;28;20125;-68
2022/09/22 02:57:45;;;;;;;2.85;1.73;;;;;;;-140.72;100.00;52849.47;5005875;28;20105;-68
2022/09/22 03:00:11;;;;;;;5.13;2.80;;;;;;;-140.72;100.00;52829.19;4998742;28;20022;-68
2022/09/22 03:02:38;;;;;;;4.47;2.42;;;;;;;-140.72;100.00;52814.97;5007506;28;20041;-68
2022/09/22 03:05:04;;;;;;;2.75;1.98;;;;;;;-140.72;100.00;52827.16;5009857;28;20030;-68
2022/09/22 03:07:30;;;;;;;5.25;2.22;;;;;;;-140.72;100.00;52847.44;5013584;28;20026;-68
2022/09/22 03:09:55;;;;;;;4.88;2.45;;;;;;;-140.72;100.00;52859.63;5018162;28;20418;-68
2022/09/22 03:12:20;;;;;;;2.88;2.08;;;;;;;-140.72;100.00;52827.16;5005411;28;20034;-68
2022/09/22 03:14:46;;;;;;;4.18;2.15;;;;;;;-140.72;100.00;52837.28;5013445;28;20184;-68
2022/09/22 03:17:11;;;;;;;4.00;2.60;;;;;;;-140.72;100.00;52812.94;5013016;28;20014;-68
2022/09/22 03:19:36;;;;;;;4.53;3.38;;;;;;;-140.72;100.00;52849.47;5013030;28;20033;-68
2022/09/22 03:22:04;;;;;;;4.43;2.78;;;;;;;-140.72;100.00;52794.69;5012009;28;20023;-68
2022/09/22 03:24:29;;;;;;;3.28;2.28;;;;;;;-140.72;100.00;52796.72;5012620;28;20091;-68
2022/09/22 03:26:55;;;;;;;4.53;2.47;;;;;;;-140.72;100.00;52863.66;5018206;28;20113;-68
2022/09/22 03:29:21;;;;;;;3.25;2.03;;;;;;;-140.72;100.00;52829.19;5016548;28;20156;-68
2022/09/22 03:31:46;;;;;;;5.63;1.98;;;;;;;-140.72;100.00;52849.47;5011250;28;20033;-68
2022/09/22 03:34:11;;;;;;;2.78;2.15;;;;;;;-140.72;100.00;52837.28;5016233;28;20133;-68
2022/09/22 03:36:37;;;;;;;4.20;2.45;;;;;;;-140.72;100.00;52837.28;5011189;28;20022;-68
2022/09/22 03:39:02;;;;;;;4.35;2.65;;;;;;;-140.72;100.00;52881.94;5016428;28;20021;-68
2022/09/22 03:41:27;;;;;;;3.55;2.47;;;;;;;-140.72;100.00;52814.97;5015002;28;20088;-68
2022/09/22 03:43:53;;;;;;;2.80;2.10;;;;;;;-140.72;100.00;52841.34;5004425;28;20124;-68
2022/09/22 03:46:18;;;;;;;3.05;2.10;;;;;;;-140.72;100.00;52879.91;5028006;28;20112;-69
2022/09/22 03:48:44;;;;;;;3.00;2.33;;;;;;;-140.72;100.00;52837.28;5010311;28;20110;-68
2022/09/22 03:51:09;;;;;;;3.15;2.17;;;;;;;-140.72;100.00;52819.03;5010746;28;20080;-69
2022/09/22 03:53:35;;;;;;;4.60;2.70;;;;;;;-140.72;100.00;52857.59;5016352;28;20370;-68
2022/09/22 03:56:10;;;;;;;3.92;2.03;;;;;;;-140.72;100.00;52849.47;5015583;28;20042;-68
2022/09/22 03:58:36;;;;;;;2.95;2.10;;;;;;;-140.72;100.00;52886.00;5010840;28;20430;-68
2022/09/22 04:01:03;;;;;;;2.97;2.05;;;;;;;-140.72;100.00;52873.81;5016228;28;20442;-68
2022/09/22 04:03:29;;;;;;;3.50;2.20;;;;;;;-140.72;100.00;52851.50;5015708;28;20136;-68
2022/09/22 04:06:04;;;;;;;3.95;3.05;;;;;;;-140.72;100.00;52875.84;5004801;28;20090;-68
2022/09/22 04:08:30;;;;;;;4.63;3.17;;;;;;;-140.72;100.00;52853.53;5016742;28;20389;-68
2022/09/22 04:10:56;;;;;;;3.63;2.55;;;;;;;-140.72;100.00;52819.03;5015690;28;20030;-68
2022/09/22 04:13:23;;;;;;;4.18;2.53;;;;;;;-140.72;100.00;52829.19;5026270;28;20456;-68
2022/09/22 04:15:48;;;;;;;7.10;2.55;;;;;;;-140.72;100.00;52841.34;5031027;28;20373;-68
2022/09/22 04:18:14;;;;;;;5.03;2.65;;;;;;;-140.72;100.00;52875.84;5004898;28;20034;-68
2022/09/22 04:20:42;;;;;;;3.42;2.03;;;;;;;-140.72;100.00;52847.44;5015895;28;20374;-68
2022/09/22 04:23:09;;;;;;;4.43;2.80;;;;;;;-140.72;100.00;52867.72;5029026;28;20030;-69
2022/09/22 04:25:34;;;;;;;3.45;2.80;;;;;;;-140.72;100.00;52831.19;5021925;28;20122;-69
2022/09/22 04:28:00;;;;;;;5.35;2.30;;;;;;;-140.72;100.00;52849.47;5013344;28;20069;-70
2022/09/22 04:30:26;;;;;;;3.88;2.20;;;;;;;-140.72;100.00;52859.63;5007149;28;20038;-69
2022/09/22 04:32:51;;;;;;;5.55;2.33;;;;;;;-140.72;100.00;52908.31;5008985;28;20042;-70
2022/09/22 04:35:17;;;;;;;3.75;2.85;;;;;;;-140.72;100.00;52869.75;5014603;28;20064;-71
2022/09/22 04:37:42;;;;;;;4.25;2.80;;;;;;;-140.72;100.00;52837.28;5025044;28;20069;-69
2022/09/22 04:40:10;;;;;;;4.25;2.50;;;;;;;-140.72;100.00;52851.50;5012200;28;20030;-69
2022/09/22 04:42:36;;;;;;;2.80;1.83;;;;;;;-140.72;100.00;52833.22;5016892;28;20097;-69
2022/09/22 04:45:02;;;;;;;4.45;2.55;;;;;;;-140.72;100.00;52857.59;5015234;28;20095;-69
2022/09/22 04:47:30;;;;;;;4.15;3.03;;;;;;;-140.72;100.00;52879.91;5014833;28;20093;-70
2022/09/22 04:49:55;;;;;;;6.97;2.33;;;;;;;-140.72;100.00;52825.13;5012578;28;20088;-69
2022/09/22 04:52:21;;;;;;;4.70;3.05;;;;;;;-140.72;100.00;52814.97;5015244;28;20126;-69
2022/09/22 04:54:47;;;;;;;4.03;3.03;;;;;;;-140.72;100.00;52873.81;4995853;28;20044;-69
2022/09/22 04:57:13;;;;;;;4.72;2.63;;;;;;;-140.72;100.00;52869.75;5012586;28;20480;-69
2022/09/22 04:59:38;;;;;;;3.13;2.35;;;;;;;-140.72;100.00;52833.22;5014165;28;20044;-71
2022/09/22 05:02:04;;;;;;;4.00;2.75;;;;;;;-140.72;100.00;52849.47;5016799;28;20072;-69
2022/09/22 05:04:29;;;;;;;4.57;3.00;;;;;;;-140.72;100.00;52890.06;5017555;28;20151;-69
2022/09/22 05:06:55;;;;;;;4.32;2.75;;;;;;;-140.72;100.00;52837.28;5017998;28;20642;-69
2022/09/22 05:09:20;;;;;;;10.55;3.13;;;;;;;-140.72;100.00;52827.16;5013115;28;20058;-69
2022/09/22 05:11:47;;;;;;;3.50;2.55;;;;;;;-140.72;100.00;52835.25;5014887;28;20025;-71
2022/09/22 05:14:14;;;;;;;5.15;2.20;;;;;;;-140.72;100.00;52853.53;5021366;28;20437;-69
2022/09/22 05:16:40;;;;;;;4.05;3.17;;;;;;;-140.72;100.00;52851.50;5017793;28;20018;-69
2022/09/22 05:19:08;;;;;;;4.25;3.03;;;;;;;-140.72;100.00;52837.28;5018024;28;20034;-72
2022/09/22 05:21:34;;;;;;;3.45;2.50;;;;;;;-140.72;100.00;52829.19;5001016;28;20068;-70
2022/09/22 05:23:59;;;;;;;6.20;3.30;;;;;;;-140.72;100.00;52857.59;5012453;28;20018;-70
2022/09/22 05:26:26;;;;;;;5.88;2.83;;;;;;;-140.72;100.00;52857.59;5021090;28;20366;-71
2022/09/22 05:28:52;;;;;;;4.03;2.67;;;;;;;-140.72;100.00;52904.25;5023292;28;20049;-69
2022/09/22 05:31:17;;;;;;;2.70;2.40;;;;;;;-140.72;100.00;52845.41;5002502;28;20033;-69
2022/09/22 05:33:43;;;;;;;4.53;2.95;;;;;;;-140.72;100.00;52837.28;5009452;28;20030;-69
2022/09/22 05:36:08;;;;;;;7.57;3.20;;;;;;;-140.72;100.00;52881.94;5001775;28;20489;-70
2022/09/22 05:38:34;;;;;;;4.43;3.10;;;;;;;-140.72;100.00;52898.16;5018027;28;20395;-70
2022/09/22 05:41:00;;;;;;;4.28;2.97;;;;;;;-140.72;100.00;52890.06;5009172;28;20013;-69
2022/09/22 05:43:30;;;;;;;4.30;3.25;;;;;;;-140.72;100.00;52845.41;5018253;28;20037;-69
2022/09/22 05:45:55;;;;;;;4.63;3.17;;;;;;;-140.72;100.00;52841.34;5019285;28;20076;-70
2022/09/22 05:48:21;;;;;;;4.97;3.70;;;;;;;-140.72;100.00;52869.75;5017334;28;20059;-71
2022/09/22 05:50:46;;;;;;;4.60;3.40;;;;;;;-140.72;100.00;52879.91;5020691;28;20048;-69
2022/09/22 05:53:12;;;;;;;4.40;2.90;;;;;;;-140.72;100.00;52857.59;5024562;28;20105;-71
2022/09/22 05:55:41;;;;;;;5.88;3.10;;;;;;;-140.72;100.00;52890.06;5015402;28;20100;-80
2022/09/22 05:58:11;;;;;;;4.68;3.10;;;;;;;-140.72;100.00;52861.66;5019349;28;20041;-69
2022/09/22 06:00:44;;;;;;;4.43;3.00;;;;;;;-140.72;100.00;52812.94;5023231;28;20029;-72
2022/09/22 06:03:10;;;;;;;5.90;4.00;;;;;;;-140.72;100.00;52831.19;5014582;28;20022;-68
2022/09/22 06:05:35;;;;;;;5.45;2.97;;;;;;;-140.72;100.00;52845.41;5016841;28;20037;-68
2022/09/22 06:08:05;;;;;;;4.75;3.33;;;;;;;-140.72;100.00;52845.41;5013961;28;20033;-68
2022/09/22 06:10:33;;;;;;;9.05;3.35;;;;;;;-140.72;100.00;52896.16;5040361;28;20105;-68
2022/09/22 06:13:04;;;;;;;4.35;3.22;;;;;;;-140.72;100.00;52827.16;5020987;28;20029;-67
2022/09/22 06:15:32;;;;;;;5.97;4.25;;;;;;;-140.72;100.00;52857.59;5008413;28;20034;-68
2022/09/22 06:17:58;;;;;;;4.80;2.90;;;;;;;-140.72;100.00;52817.00;5002865;28;20033;-68
2022/09/22 06:20:24;;;;;;;4.28;3.38;;;;;;;-140.72;100.00;52810.91;5016764;28;20025;-68
2022/09/22 06:22:50;;;;;;;7.13;3.80;;;;;;;-140.72;100.00;52851.50;5011892;28;20030;-67
2022/09/22 06:25:15;;;;;;;6.93;4.72;;;;;;;-140.72;100.00;52760.19;5003571;28;20142;-68
2022/09/22 06:27:42;;;;;;;6.53;4.47;;;;;;;-140.72;100.00;52849.47;5013463;28;20057;-67
2022/09/22 06:30:10;;;;;;;6.78;4.47;;;;;;;-140.72;100.00;52831.19;5011978;28;20022;-67
2022/09/22 06:32:38;;;;;;;8.95;5.13;;;;;;;-140.72;100.00;52804.81;5002290;28;20026;-68
2022/09/22 06:35:06;;;;;;;6.28;4.78;;;;;;;-140.72;100.00;52808.88;5016706;28;20095;-68
2022/09/22 06:37:32;;;;;;;7.65;5.22;;;;;;;-140.72;100.00;52841.34;5023141;28;20026;-68
2022/09/22 06:39:58;;;;;;;9.98;5.13;;;;;;;-140.72;100.00;52851.50;5027306;28;20034;-67
2022/09/22 06:42:23;;;;;;;6.82;4.90;;;;;;;-140.72;100.00;52841.34;5004059;28;20086;-68
2022/09/22 06:44:49;;;;;;;7.95;4.85;;;;;;;-140.72;100.00;52806.84;5029999;28;20036;-67
2022/09/22 06:47:14;;;;;;;9.00;7.00;;;;;;;-140.72;100.00;52837.28;5024143;28;20037;-68
2022/09/22 06:49:41;;;;;;;11.27;5.97;;;;;;;-140.72;100.00;52833.22;5026518;28;20034;-68
2022/09/22 06:52:09;;;;;;;11.98;6.43;;;;;;;-140.72;100.00;52831.19;5031392;28;20049;-66
2022/09/22 06:54:36;;;;;;;12.00;7.68;;;;;;;-140.72;100.00;52768.28;5021808;28;20136;-67
2022/09/22 06:57:02;;;;;;;12.13;7.60;;;;;;;-140.72;100.00;52814.97;5024963;28;20026;-67
2022/09/22 06:59:28;;;;;;;13.68;8.90;;;;;;;-140.72;100.00;52843.38;5023669;28;20112;-67
2022/09/22 07:01:53;;;;;;;8.23;6.25;;;;;;;-140.72;100.00;52794.69;5024371;28;20064;-67
2022/09/22 07:04:21;;;;;;;14.80;10.13;;;;;;;-140.72;100.00;52808.88;5019840;28;20025;-67
2022/09/22 07:06:49;;;;;;;11.95;9.68;;;;;;;-140.72;100.00;52817.00;5013215;28;20030;-67
2022/09/22 07:09:14;;;;;;;14.43;10.55;;;;;;;-140.72;100.00;52754.09;5031431;28;20415;-66
2022/09/22 07:11:40;;;;;;;14.82;9.60;;;;;;;-140.72;100.00;52798.72;5012449;28;20053;-67
2022/09/22 07:14:06;;;;;;;20.65;9.65;;;;;;;-140.72;100.00;52800.75;5023166;28;20481;-67
2022/09/22 07:16:31;;;;;;;13.50;10.23;;;;;;;-140.72;100.00;52810.91;5030762;28;20041;-67
2022/09/22 07:18:59;;;;;;;11.10;8.68;;;;;;;-140.72;100.00;52796.72;5027160;28;20105;-67
2022/09/22 07:21:29;;;;;;;13.90;9.25;;;;;;;-140.72;100.00;52817.00;5027328;28;20105;-66
2022/09/22 07:23:57;;;;;;;15.25;10.25;;;;;;;-140.72;100.00;52784.53;5015155;28;20028;-66
2022/09/22 07:26:29;;;;;;;13.00;9.43;;;;;;;-140.72;100.00;52786.56;5020905;28;20050;-66
2022/09/22 07:28:58;;;;;;;13.50;9.07;;;;;;;-140.72;100.00;52772.34;5034481;28;20372;-66
2022/09/22 07:31:24;;;;;;;12.90;10.80;;;;;;;-140.72;100.00;52804.81;5028356;28;20029;-67
2022/09/22 07:33:52;;;;;;;12.63;9.43;;;;;;;-140.72;100.00;52812.94;5029495;28;20110;-67
2022/09/22 07:36:24;;;;;;;12.57;9.95;;;;;;;-140.72;100.00;52743.94;5012432;28;20026;-67
2022/09/22 07:38:51;;;;;;;11.57;9.82;;;;;;;-140.72;100.00;52798.72;5021935;28;20140;-67
2022/09/22 07:41:19;;;;;;;11.50;9.50;;;;;;;-140.72;100.00;52794.69;5012737;28;20118;-67
2022/09/22 07:43:45;;;;;;;12.48;9.60;;;;;;;-140.72;100.00;52782.50;5016894;28;20049;-66
2022/09/22 07:46:12;;;;;;;13.75;9.52;;;;;;;-140.72;100.00;52780.47;5022865;28;20025;-67
2022/09/22 07:48:46;;;;;;;13.23;9.82;;;;;;;-140.72;100.00;52796.72;5023193;28;20043;-67
2022/09/22 07:51:21;;;;;;;12.73;9.20;;;;;;;-140.72;100.00;52739.88;5021064;28;20085;-67
2022/09/22 07:53:48;;;;;;;13.45;9.15;;;;;;;-140.72;100.00;52764.25;5005797;28;20046;-67
2022/09/22 07:56:16;;;;;;;14.68;9.52;;;;;;;-140.72;100.00;52748.00;5022203;28;20033;-67
2022/09/22 07:58:52;;;;;;;13.50;9.73;;;;;;;-140.72;100.00;52764.25;5028666;28;20027;-67
2022/09/22 08:01:19;;;;;;;13.48;9.10;;;;;;;-140.72;100.00;52776.41;5020911;28;20473;-67
2022/09/22 08:03:46;;;;;;;10.85;8.95;;;;;;;-140.72;100.00;52741.91;5022807;28;20060;-66
2022/09/22 08:06:12;;;;;;;14.52;9.30;;;;;;;-140.72;100.00;52731.75;5021742;28;20028;-66
2022/09/22 08:08:41;;;;;;;9.10;8.10;;;;;;;-140.72;100.00;52743.94;5010572;28;20097;-67
2022/09/22 08:11:13;;;;;;;9.05;8.15;;;;;;;-140.72;100.00;52723.66;5021610;28;20030;-67
2022/09/22 08:13:41;;;;;;;10.25;8.25;;;;;;;-140.72;100.00;52752.06;5008888;28;20027;-67
2022/09/22 08:16:06;;;;;;;11.88;9.32;;;;;;;-140.72;100.00;52739.88;5015195;28;20019;-66
2022/09/22 08:18:34;;;;;;;11.20;9.02;;;;;;;-140.72;100.00;52729.75;5015252;28;20037;-67
2022/09/22 08:21:00;;;;;;;13.48;9.82;;;;;;;-140.72;100.00;52703.34;5011301;28;20056;-67
2022/09/22 08:23:27;;;;;;;11.73;10.48;;;;;;;-140.72;100.00;52689.16;5011428;28;20069;-67
2022/09/22 08:25:53;;;;;;;12.93;9.50;;;;;;;-140.72;100.00;52723.66;5004826;28;20022;-67
2022/09/22 08:28:18;;;;;;;13.60;9.07;;;;;;;-140.72;100.00;52723.66;5003178;28;20027;-67
2022/09/22 08:30:45;;;;;;;15.55;8.48;;;;;;;-140.72;100.00;52703.34;5009560;28;20470;-67
2022/09/22 08:33:10;;;;;;;11.90;9.07;;;;;;;-140.72;100.00;52689.16;5016203;28;20420;-67
2022/09/22 08:35:36;;;;;;;9.90;7.47;;;;;;;-140.72;100.00;52717.56;5008733;28;20126;-66
2022/09/22 08:38:01;;;;;;;11.45;8.32;;;;;;;-140.72;100.00;52674.94;5008501;28;20371;-67
2022/09/22 08:40:27;;;;;;;11.35;8.30;;;;;;;-140.72;100.00;52703.34;5030676;28;20108;-67
2022/09/22 08:42:54;;;;;;;11.18;8.55;;;;;;;-140.72;100.00;52699.31;5021584;28;20034;-67
2022/09/22 08:45:38;;;;;;;11.10;8.27;;;;;;;-140.72;100.00;52650.59;5008374;28;20033;-67
2022/09/22 08:54:15;;;;;;;8.18;7.03;;;;;;;-140.72;100.00;52640.44;5023129;28;20068;-67
2022/09/22 08:57:10;;;;;;;9.85;7.78;;;;;;;-140.72;100.00;52632.34;5016820;28;20025;-67
2022/09/22 08:59:44;;;;;;;8.43;6.15;;;;;;;-140.72;100.00;52593.78;5009263;28;20022;-67
2022/09/22 09:02:51;;;;;;;7.43;6.03;;;;;;;-140.72;100.00;52587.69;5033450;28;20036;-68
2022/09/22 09:05:41;;;;;;;5.90;5.30;;;;;;;-140.72;100.00;52614.06;4979387;28;20031;-67
2022/09/22 09:08:10;;;;;;;5.40;4.90;;;;;;;-140.72;100.00;52589.72;4988372;28;20034;-67
2022/09/22 09:10:55;;;;;;;7.40;5.60;;;;;;;-140.72;100.00;52534.94;5004854;28;20102;-67
2022/09/22 09:13:48;;;;;;;8.02;5.22;;;;;;;-140.72;100.00;52545.06;5020645;28;20037;-68
2022/09/22 09:16:35;;;;;;;6.18;3.95;;;;;;;-140.72;100.00;52522.75;5011293;28;20132;-67
2022/09/22 09:19:10;;;;;;;6.20;4.18;;;;;;;-140.72;100.00;52545.06;5016992;28;20050;-67
2022/09/22 09:21:39;;;;;;;4.95;3.70;;;;;;;-140.72;100.00;52496.38;5010624;28;20027;-66
2022/09/22 09:24:13;;;;;;;4.70;3.60;;;;;;;-140.72;100.00;52508.56;5020027;28;20034;-67
2022/09/22 09:26:39;;;;;;;4.45;3.20;;;;;;;-140.72;100.00;52494.34;5022599;28;20026;-68
2022/09/22 09:29:10;;;;;;;5.05;3.22;;;;;;;-140.72;100.00;52498.41;5019960;28;20030;-67
2022/09/22 09:31:42;;;;;;;4.15;3.25;;;;;;;-140.72;100.00;52524.78;5002179;28;20117;-67
2022/09/22 09:34:16;;;;;;;4.78;3.45;;;;;;;-140.72;100.00;52490.28;5013038;28;20061;-67
2022/09/22 09:36:50;;;;;;;5.10;3.53;;;;;;;-140.72;1.15;52484.19;5021517;28;20025;-67
2022/09/22 09:39:30;;;;;;;4.40;3.28;;;;;;;-140.72;0.00;52443.63;5023661;28;20021;-68
2022/09/22 09:41:57;;;;;;;4.10;2.80;;;;;;;-140.72;0.00;52472.03;5019705;28;20033;-67
2022/09/22 09:44:32;;;;;;;3.92;3.25;;;;;;;-140.72;0.00;52435.50;5022875;28;20120;-67
2022/09/22 09:47:26;;;;;;;4.47;3.33;;;;;;;-140.72;0.00;52451.72;5022519;28;20026;-67
2022/09/22 09:49:53;;;;;;;5.10;3.30;;;;;;;-140.72;0.00;52455.78;5024526;28;20068;-67
2022/09/22 09:52:22;;;;;;;3.88;3.15;;;;;;;-140.72;0.00;52415.22;5029039;28;20477;-67
2022/09/22 09:54:48;;;;;;;5.63;3.83;;;;;;;-140.72;0.00;52419.28;5034232;28;20080;-67
2022/09/22 09:57:15;;;;;;;4.40;3.40;;;;;;;-140.72;0.00;52396.94;5021406;28;20026;-67
2022/09/22 10:02:49;;;;;;;4.45;3.05;;;;;;;-140.72;0.00;52433.47;5020514;28;20052;-67
2022/09/22 10:05:17;;;;;;;7.68;3.08;;;;;;;-140.72;0.00;52398.97;5019179;28;20040;-67
2022/09/22 10:07:45;;;;;;;3.72;2.85;;;;;;;-140.72;0.00;52374.63;5016135;28;20057;-67
2022/09/22 10:10:34;;;;;;;3.60;3.00;;;;;;;-140.72;0.00;52374.63;5007297;28;20076;-67
2022/09/22 10:13:19;;;;;;;3.95;2.00;;;;;;;-140.72;0.00;52354.34;5000654;28;20051;-68
2022/09/22 10:16:00;;;;;;;2.78;1.95;;;;;;;-140.72;0.00;52382.75;5011729;28;20090;-67
2022/09/22 10:18:34;;;;;;;2.85;1.85;;;;;;;-140.72;0.00;52346.22;5024714;28;20396;-67
2022/09/22 10:21:20;;;;;;;2.42;1.77;;;;;;;-140.72;0.00;52348.25;5033908;28;20113;-67
2022/09/22 10:23:48;;;;;;;2.67;1.40;;;;;;;-140.72;0.00;52350.28;5032599;28;20053;-67
2022/09/22 10:26:16;;;;;;;2.38;1.70;;;;;;;-140.72;0.00;52390.84;5019647;28;20022;-67
2022/09/22 10:28:41;;;;;;;2.67;1.88;;;;;;;-140.72;0.00;52346.22;5008771;28;20037;-67
2022/09/22 10:31:18;;;;;;;2.20;1.52;;;;;;;-140.72;0.00;52346.22;5027505;28;20060;-67
2022/09/22 10:33:59;;;;;;;3.15;1.85;;;;;;;-140.72;0.00;52342.16;5015366;28;20042;-67
2022/09/22 10:36:27;;;;;;;3.08;1.40;;;;;;;-140.72;0.00;52305.63;5019080;28;20100;-68
2022/09/22 10:38:53;;;;;;;1.48;0.95;;;;;;;-140.72;0.00;52287.38;5011517;28;20034;-67
2022/09/22 10:41:25;;;;;;;1.70;1.08;;;;;;;-140.72;0.00;52273.19;5009310;28;20190;-67
2022/09/22 10:43:59;;;;;;;1.83;1.27;;;;;;;-140.72;0.00;52338.09;5016736;28;20040;-68
2022/09/22 10:46:52;;;;;;;1.92;1.05;;;;;;;-140.72;0.00;52325.94;5006364;28;20034;-67
2022/09/22 10:49:38;;;;;;;1.60;1.02;;;;;;;-140.72;0.00;52283.31;5019946;28;20045;-67
2022/09/22 10:52:04;;;;;;;4.75;1.13;;;;;;;-140.72;0.00;52327.97;5013022;28;20034;-67
2022/09/22 10:54:32;;;;;;;1.55;0.93;;;;;;;-140.72;0.00;52265.06;5014172;28;20029;-67
2022/09/22 10:57:08;;;;;;;1.35;0.80;;;;;;;-140.72;0.00;52261.00;5010822;28;20041;-67
2022/09/22 11:00:13;;;;;;;2.15;0.70;;;;;;;-140.72;0.00;52232.59;5019734;28;20046;-68
2022/09/22 11:02:47;;;;;;;2.72;1.00;;;;;;;-140.72;0.00;52183.91;5007013;28;20057;-68
2022/09/22 11:14:35;;;;;;;1.63;0.90;;;;;;;-140.72;0.00;52200.13;5019038;28;20041;-67
2022/09/22 11:17:30;;;;;;;2.17;1.20;;;;;;;-140.72;0.00;52159.56;5018564;28;20026;-68
2022/09/22 11:20:35;;;;;;;2.10;0.85;;;;;;;-140.72;0.00;52127.09;5019910;28;20101;-67
2022/09/22 11:23:15;;;;;;;3.20;0.98;;;;;;;-140.72;0.00;52131.16;4999405;28;20049;-67
2022/09/22 11:25:53;;;;;;;1.13;0.70;;;;;;;-140.72;0.00;52173.75;5016933;28;20125;-67
2022/09/22 11:28:43;;;;;;;1.83;0.80;;;;;;;-140.72;0.00;52096.66;5017902;28;20033;-68
2022/09/22 11:31:24;;;;;;;1.17;0.60;;;;;;;-140.72;0.00;52080.41;5018389;28;20026;-68
2022/09/22 11:34:21;;;;;;;1.17;0.82;;;;;;;-140.72;0.00;52137.22;5011243;28;20046;-68
2022/09/22 11:37:24;;;;;;;3.95;0.80;;;;;;;-140.72;0.00;52082.44;5009522;28;20481;-67
2022/09/22 11:40:17;;;;;;;0.88;0.40;;;;;;;-140.72;0.00;52078.38;5009146;28;20437;-67
2022/09/22 11:42:55;;;;;;;0.77;0.35;;;;;;;-140.72;0.00;52084.47;5021199;28;20025;-67